createdAt,value
2023-01-22T00:00:34.705Z,4.39
2023-01-22T00:03:01.377Z,4.22
2023-01-22T00:05:27.854Z,4.36
2023-01-22T00:07:54.318Z,4.21
2023-01-22T00:10:20.836Z,4.57
2023-01-22T00:12:47.369Z,4.38
2023-01-22T00:15:14.157Z,4.72
2023-01-22T00:17:40.688Z,4.47
2023-01-22T00:20:07.707Z,4.10
2023-01-22T00:22:34.280Z,3.82
2023-01-22T00:25:00.738Z,4.00
2023-01-22T00:27:27.179Z,4.13
2023-01-22T00:29:53.657Z,4.53
2023-01-22T00:32:20.218Z,4.20
2023-01-22T00:34:52.153Z,4.36
2023-01-22T00:37:20.296Z,4.12
2023-01-22T00:39:47.020Z,4.44
2023-01-22T00:42:13.561Z,4.29
2023-01-22T00:44:40.308Z,4.00
2023-01-22T00:47:06.811Z,4.19
2023-01-22T00:49:33.258Z,4.34
2023-01-22T00:51:59.864Z,4.44
2023-01-22T00:54:26.467Z,4.38
2023-01-22T00:56:53.043Z,4.28
2023-01-22T00:59:19.539Z,4.31
2023-01-22T01:01:46.068Z,4.37
2023-01-22T01:04:14.421Z,4.28
2023-01-22T01:06:41.036Z,4.51
2023-01-22T01:09:07.529Z,4.30
2023-01-22T01:11:34.345Z,4.37
2023-01-22T01:14:01.744Z,4.23
2023-01-22T01:16:31.057Z,4.46
2023-01-22T01:19:02.581Z,4.52
2023-01-22T01:21:29.514Z,4.52
2023-01-22T01:23:57.431Z,4.43
2023-01-22T01:26:24.774Z,3.95
2023-01-22T01:28:54.703Z,4.38
2023-01-22T01:31:22.813Z,4.50
2023-01-22T01:33:49.949Z,4.57
2023-01-22T01:36:30.672Z,4.25
2023-01-22T01:39:05.474Z,4.22
2023-01-22T01:41:32.383Z,3.93
2023-01-22T01:44:27.327Z,4.05
2023-01-22T01:47:24.408Z,3.77
2023-01-22T01:49:52.931Z,4.57
2023-01-22T01:52:20.071Z,3.89
2023-01-22T01:54:50.437Z,4.13
2023-01-22T01:57:21.314Z,4.32
2023-01-22T01:59:49.101Z,4.47
2023-01-22T02:02:16.120Z,4.35
2023-01-22T02:04:42.705Z,4.79
2023-01-22T02:07:09.297Z,4.38
2023-01-22T02:09:35.794Z,4.82
2023-01-22T02:12:02.591Z,4.65
2023-01-22T02:14:34.353Z,4.65
2023-01-22T02:17:22.095Z,4.72
2023-01-22T02:19:48.735Z,4.54
2023-01-22T02:22:28.390Z,4.40
2023-01-22T02:24:54.867Z,4.67
2023-01-22T02:27:21.689Z,4.80
2023-01-22T02:29:48.400Z,4.83
2023-01-22T02:32:15.044Z,4.65
2023-01-22T02:34:41.719Z,4.81
2023-01-22T02:37:08.162Z,4.53
2023-01-22T02:39:34.667Z,4.24
2023-01-22T02:42:01.381Z,4.00
2023-01-22T02:44:28.121Z,4.66
2023-01-22T02:46:54.668Z,4.37
2023-01-22T02:49:21.208Z,4.46
2023-01-22T02:51:47.698Z,4.55
2023-01-22T02:54:14.172Z,4.64
2023-01-22T02:56:40.601Z,4.59
2023-01-22T02:59:07.117Z,4.72
2023-01-22T03:01:33.775Z,4.49
2023-01-22T03:04:10.830Z,5.07
2023-01-22T03:06:42.430Z,5.03
2023-01-22T03:09:10.089Z,5.16
2023-01-22T03:11:37.832Z,5.22
2023-01-22T03:14:23.578Z,4.99
2023-01-22T03:17:09.117Z,5.12
2023-01-22T03:19:54.212Z,4.83
2023-01-22T03:22:20.870Z,5.20
2023-01-22T03:24:53.671Z,5.48
2023-01-22T03:27:22.292Z,4.74
2023-01-22T03:29:49.381Z,4.64
2023-01-22T03:32:16.944Z,4.47
2023-01-22T03:34:43.471Z,4.87
2023-01-22T03:37:12.841Z,4.85
2023-01-22T03:39:39.685Z,4.46
2023-01-22T03:42:06.675Z,4.62
2023-01-22T03:44:33.110Z,4.77
2023-01-22T03:46:59.557Z,4.61
2023-01-22T03:49:26.011Z,4.91
2023-01-22T03:51:52.477Z,4.60
2023-01-22T03:54:19.244Z,4.97
2023-01-22T03:56:45.678Z,4.68
2023-01-22T03:59:12.185Z,4.27
2023-01-22T04:01:38.858Z,4.71
2023-01-22T04:04:05.396Z,4.99
2023-01-22T04:06:32.044Z,5.08
2023-01-22T04:08:58.565Z,5.01
2023-01-22T04:11:25.115Z,4.68
2023-01-22T04:13:51.659Z,4.75
2023-01-22T04:16:18.257Z,4.84
2023-01-22T04:18:44.962Z,4.88
2023-01-22T04:21:11.506Z,4.12
2023-01-22T04:23:37.975Z,4.07
2023-01-22T04:26:04.606Z,4.33
2023-01-22T04:28:31.044Z,4.48
2023-01-22T04:30:57.763Z,4.03
2023-01-22T04:33:24.276Z,4.47
2023-01-22T04:35:52.260Z,4.49
2023-01-22T04:38:19.074Z,4.89
2023-01-22T04:40:45.634Z,4.78
2023-01-22T04:43:12.096Z,4.68
2023-01-22T04:45:38.826Z,4.79
2023-01-22T04:48:05.674Z,4.99
2023-01-22T04:50:33.171Z,4.92
2023-01-22T04:53:00.553Z,5.23
2023-01-22T04:55:27.615Z,5.36
2023-01-22T04:57:56.218Z,4.69
2023-01-22T05:00:23.098Z,4.57
2023-01-22T05:02:50.214Z,4.89
2023-01-22T05:05:17.197Z,4.99
2023-01-22T05:07:43.725Z,5.16
2023-01-22T05:10:10.680Z,4.79
2023-01-22T05:12:37.159Z,4.92
2023-01-22T05:15:07.250Z,4.97
2023-01-22T05:17:38.731Z,5.03
2023-01-22T05:20:05.654Z,4.75
2023-01-22T05:22:32.105Z,4.67
2023-01-22T05:24:58.581Z,4.88
2023-01-22T05:27:25.053Z,4.71
2023-01-22T05:29:51.510Z,4.77
2023-01-22T05:32:18.231Z,4.65
2023-01-22T05:34:44.702Z,4.76
2023-01-22T05:37:11.267Z,4.94
2023-01-22T05:39:37.720Z,4.91
2023-01-22T05:42:04.310Z,4.55
2023-01-22T05:44:33.335Z,4.85
2023-01-22T05:47:00.051Z,4.29
2023-01-22T05:49:26.512Z,4.59
2023-01-22T05:51:52.935Z,4.53
2023-01-22T05:54:19.472Z,4.19
2023-01-22T05:56:45.951Z,4.36
2023-01-22T05:59:12.961Z,4.35
2023-01-22T06:01:39.525Z,4.79
2023-01-22T06:04:06.077Z,4.55
2023-01-22T06:06:32.626Z,4.70
2023-01-22T06:08:59.740Z,4.49
2023-01-22T06:11:27.346Z,4.59
2023-01-22T06:13:54.257Z,4.70
2023-01-22T06:16:21.132Z,4.77
2023-01-22T06:18:47.577Z,4.67
2023-01-22T06:21:14.141Z,4.45
2023-01-22T06:23:40.597Z,4.42
2023-01-22T06:26:07.129Z,4.86
2023-01-22T06:28:33.620Z,4.52
2023-01-22T06:31:08.127Z,4.67
2023-01-22T06:33:35.361Z,4.44
2023-01-22T06:36:02.206Z,4.30
2023-01-22T06:38:28.966Z,4.56
2023-01-22T06:40:57.331Z,4.44
2023-01-22T06:43:24.423Z,4.23
2023-01-22T06:45:50.968Z,4.32
2023-01-22T06:48:17.476Z,4.02
2023-01-22T06:50:44.951Z,4.36
2023-01-22T06:53:11.563Z,4.42
2023-01-22T06:55:38.158Z,4.78
2023-01-22T06:58:04.810Z,4.22
2023-01-22T07:00:31.301Z,4.58
2023-01-22T07:02:58.285Z,4.37
2023-01-22T07:05:24.773Z,4.85
2023-01-22T07:07:55.025Z,4.87
2023-01-22T07:10:22.063Z,4.55
2023-01-22T07:12:49.944Z,4.94
2023-01-22T07:15:16.972Z,4.83
2023-01-22T07:17:43.634Z,4.86
2023-01-22T07:20:10.928Z,4.86
2023-01-22T07:22:37.380Z,4.72
2023-01-22T07:25:04.237Z,4.83
2023-01-22T07:27:32.496Z,4.75
2023-01-22T07:29:59.145Z,5.01
2023-01-22T07:32:25.599Z,4.91
2023-01-22T07:34:52.076Z,4.09
2023-01-22T07:37:18.576Z,4.09
2023-01-22T07:39:45.314Z,4.71
2023-01-22T07:42:12.696Z,4.14
2023-01-22T07:44:42.055Z,4.46
2023-01-22T07:47:08.675Z,4.29
2023-01-22T07:49:35.523Z,4.49
2023-01-22T07:52:02.016Z,4.60
2023-01-22T07:54:28.562Z,4.65
2023-01-22T07:56:55.204Z,4.34
2023-01-22T07:59:21.786Z,4.70
2023-01-22T08:01:48.312Z,4.60
2023-01-22T08:04:14.956Z,4.51
2023-01-22T08:06:41.411Z,4.45
2023-01-22T08:09:07.864Z,4.25
2023-01-22T08:11:34.375Z,4.65
2023-01-22T08:14:00.905Z,4.88
2023-01-22T08:16:27.502Z,4.93
2023-01-22T08:18:54.093Z,5.01
2023-01-22T08:21:20.583Z,5.06
2023-01-22T08:23:49.336Z,4.86
2023-01-22T08:26:16.233Z,5.20
2023-01-22T08:28:42.897Z,4.67
2023-01-22T08:31:16.291Z,4.75
2023-01-22T08:33:45.993Z,4.81
2023-01-22T08:36:12.502Z,4.91
2023-01-22T08:38:39.439Z,4.92
2023-01-22T08:41:05.900Z,5.07
2023-01-22T08:43:32.642Z,5.13
2023-01-22T08:45:59.197Z,5.58
2023-01-22T08:48:25.707Z,5.46
2023-01-22T08:50:52.172Z,5.45
2023-01-22T08:53:18.658Z,5.25
2023-01-22T08:55:50.033Z,5.16
2023-01-22T08:58:16.935Z,5.43
2023-01-22T09:00:44.529Z,5.54
2023-01-22T09:03:11.105Z,5.36
2023-01-22T09:05:39.795Z,5.48
2023-01-22T09:08:06.851Z,5.22
2023-01-22T09:10:33.350Z,5.29
2023-01-22T09:13:00.426Z,5.30
2023-01-22T09:15:27.398Z,5.14
2023-01-22T09:17:53.919Z,5.49
2023-01-22T09:20:20.806Z,5.32
2023-01-22T09:22:48.203Z,5.14
2023-01-22T09:25:15.701Z,5.16
2023-01-22T09:27:42.210Z,5.42
2023-01-22T09:30:14.353Z,5.14
2023-01-22T09:32:41.399Z,5.74
2023-01-22T09:35:08.416Z,5.61
2023-01-22T09:37:35.086Z,6.10
2023-01-22T09:40:01.534Z,6.07
2023-01-22T09:42:34.369Z,6.58
2023-01-22T09:45:12.584Z,6.70
2023-01-22T09:47:52.812Z,6.75
2023-01-22T09:50:19.587Z,6.37
2023-01-22T09:52:46.867Z,6.13
2023-01-22T09:55:16.696Z,6.37
2023-01-22T09:57:48.713Z,6.12
2023-01-22T10:00:21.497Z,6.49
2023-01-22T10:02:52.984Z,5.81
2023-01-22T10:05:23.982Z,6.44
2023-01-22T10:08:00.652Z,5.71
2023-01-22T10:10:28.873Z,6.11
2023-01-22T10:13:09.993Z,6.04
2023-01-22T10:15:36.867Z,6.25
2023-01-22T10:18:28.232Z,6.35
2023-01-22T10:20:55.551Z,6.40
2023-01-22T10:23:25.713Z,6.48
2023-01-22T10:26:01.320Z,5.97
2023-01-22T10:28:28.319Z,6.31
2023-01-22T10:30:58.663Z,6.68
2023-01-22T10:33:27.315Z,6.62
2023-01-22T10:35:56.778Z,6.19
2023-01-22T10:38:30.885Z,6.43
2023-01-22T10:40:58.444Z,6.21
2023-01-22T10:43:32.920Z,6.15
2023-01-22T10:46:05.449Z,5.80
2023-01-22T10:48:33.245Z,6.24
2023-01-22T10:51:16.365Z,6.42
2023-01-22T10:53:48.883Z,6.06
2023-01-22T10:56:30.736Z,5.94
2023-01-22T10:58:58.719Z,6.26
2023-01-22T11:01:36.119Z,6.29
2023-01-22T11:04:13.298Z,6.44
2023-01-22T11:06:42.772Z,6.34
2023-01-22T11:09:46.655Z,6.39
2023-01-22T11:12:20.723Z,6.24
2023-01-22T11:14:54.241Z,6.43
2023-01-22T11:17:34.499Z,6.60
2023-01-22T11:20:04.809Z,6.85
2023-01-22T11:22:34.855Z,6.94
2023-01-22T11:25:02.247Z,6.62
2023-01-22T11:27:35.572Z,6.73
2023-01-22T11:30:19.780Z,6.80
2023-01-22T11:33:01.720Z,6.66
2023-01-22T11:35:28.221Z,6.90
2023-01-22T11:38:04.658Z,6.63
2023-01-22T11:40:33.530Z,6.42
2023-01-22T11:43:21.765Z,6.04
2023-01-22T11:46:00.770Z,6.45
2023-01-22T11:48:45.766Z,6.48
2023-01-22T11:51:20.582Z,6.66
2023-01-22T11:53:53.406Z,6.23
2023-01-22T11:56:19.829Z,6.63
2023-01-22T11:58:49.153Z,6.36
2023-01-22T12:01:27.856Z,6.29
2023-01-22T12:04:18.436Z,6.33
2023-01-22T12:06:56.494Z,6.46
2023-01-22T12:09:26.395Z,6.40
2023-01-22T12:12:06.284Z,5.91
2023-01-22T12:14:47.916Z,6.45
2023-01-22T12:17:24.698Z,6.53
2023-01-22T12:20:20.779Z,6.06
2023-01-22T12:22:52.182Z,6.16
2023-01-22T12:25:36.911Z,6.06
2023-01-22T12:28:29.683Z,6.74
2023-01-22T12:31:11.276Z,6.50
2023-01-22T12:33:41.700Z,6.52
2023-01-22T12:36:13.164Z,6.24
2023-01-22T12:38:58.214Z,6.53
2023-01-22T12:41:57.022Z,6.29
2023-01-22T12:45:02.960Z,6.22
2023-01-22T12:47:38.130Z,6.77
2023-01-22T12:50:16.657Z,6.72
2023-01-22T12:52:47.490Z,6.90
2023-01-22T12:55:37.912Z,6.94
2023-01-22T12:58:04.998Z,7.07
2023-01-22T13:00:38.959Z,6.88
2023-01-22T13:03:32.059Z,6.68
2023-01-22T13:06:00.073Z,6.61
2023-01-22T13:08:41.769Z,6.72
2023-01-22T13:11:11.338Z,6.92
2023-01-22T13:13:51.061Z,6.68
2023-01-22T13:16:37.246Z,6.97
2023-01-22T13:19:38.618Z,6.77
2023-01-22T13:22:07.012Z,6.57
2023-01-22T13:24:33.528Z,6.77
2023-01-22T13:27:01.700Z,6.92
2023-01-22T13:29:32.849Z,6.92
2023-01-22T13:32:20.287Z,6.60
2023-01-22T13:34:47.138Z,6.61
2023-01-22T13:37:33.820Z,7.01
2023-01-22T13:40:13.344Z,6.97
2023-01-22T13:42:43.560Z,6.96
2023-01-22T13:45:22.134Z,7.00
2023-01-22T13:47:48.859Z,6.45
2023-01-22T13:50:21.074Z,6.99
2023-01-22T13:52:50.249Z,6.87
2023-01-22T13:55:18.923Z,6.78
2023-01-22T13:57:47.702Z,6.20
2023-01-22T14:00:34.804Z,6.73
2023-01-22T14:03:01.960Z,6.14
2023-01-22T14:05:35.333Z,6.57
2023-01-22T14:08:12.978Z,6.78
2023-01-22T14:10:41.980Z,6.53
2023-01-22T14:13:13.339Z,6.93
2023-01-22T14:15:41.405Z,6.94
2023-01-22T14:18:16.661Z,6.95
2023-01-22T14:20:45.437Z,7.01
2023-01-22T14:23:12.330Z,6.91
2023-01-22T14:25:52.586Z,6.95
2023-01-22T14:28:20.185Z,7.02
2023-01-22T14:30:46.752Z,7.33
2023-01-22T14:33:20.525Z,7.11
2023-01-22T14:35:48.851Z,7.24
2023-01-22T14:38:15.351Z,7.36
2023-01-22T14:40:42.392Z,7.42
2023-01-22T14:43:08.959Z,7.06
2023-01-22T14:45:35.468Z,7.17
2023-01-22T14:48:04.132Z,7.28
2023-01-22T14:50:31.331Z,7.39
2023-01-22T14:52:57.922Z,7.21
2023-01-22T14:55:24.829Z,7.35
2023-01-22T14:57:51.432Z,7.27
2023-01-22T15:00:19.507Z,7.06
2023-01-22T15:02:47.710Z,7.17
2023-01-22T15:05:14.238Z,7.32
2023-01-22T15:07:40.723Z,7.41
2023-01-22T15:10:08.436Z,7.11
2023-01-22T15:12:34.925Z,7.27
2023-01-22T15:15:01.523Z,7.25
2023-01-22T15:17:28.045Z,7.51
2023-01-22T15:19:54.826Z,7.01
2023-01-22T15:22:21.392Z,7.11
2023-01-22T15:24:47.865Z,7.32
2023-01-22T15:27:18.424Z,7.35
2023-01-22T15:29:45.663Z,7.26
2023-01-22T15:32:12.596Z,7.05
2023-01-22T15:34:39.088Z,6.95
2023-01-22T15:37:06.001Z,7.07
2023-01-22T15:39:32.617Z,7.19
2023-01-22T15:41:59.658Z,7.17
2023-01-22T15:44:26.169Z,7.06
2023-01-22T15:46:52.678Z,7.04
2023-01-22T15:49:20.259Z,7.12
2023-01-22T15:51:46.763Z,6.59
2023-01-22T15:54:15.135Z,6.75
2023-01-22T15:56:41.757Z,6.65
2023-01-22T15:59:08.615Z,6.74
2023-01-22T16:01:35.154Z,6.88
2023-01-22T16:04:02.987Z,6.96
2023-01-22T16:06:31.875Z,6.94
2023-01-22T16:08:59.476Z,6.75
2023-01-22T16:11:27.592Z,6.67
2023-01-22T16:13:54.427Z,6.53
2023-01-22T16:16:26.301Z,7.02
2023-01-22T16:18:53.663Z,6.88
2023-01-22T16:21:21.613Z,7.03
2023-01-22T16:23:51.700Z,6.87
2023-01-22T16:26:20.301Z,6.62
2023-01-22T16:28:48.966Z,6.97
2023-01-22T16:31:18.383Z,7.04
2023-01-22T16:33:46.900Z,6.95
2023-01-22T16:36:15.995Z,7.11
2023-01-22T16:38:42.799Z,7.12
2023-01-22T16:41:24.728Z,7.13
2023-01-22T16:43:54.151Z,7.15
2023-01-22T16:46:23.265Z,7.18
2023-01-22T16:48:54.981Z,7.17
2023-01-22T16:51:24.886Z,6.54
2023-01-22T16:53:51.796Z,7.04
2023-01-22T16:56:18.282Z,7.16
2023-01-22T16:58:44.878Z,6.68
2023-01-22T17:01:15.294Z,7.08
2023-01-22T17:03:42.141Z,7.13
2023-01-22T17:06:26.894Z,7.10
2023-01-22T17:08:53.516Z,6.94
2023-01-22T17:11:20.221Z,6.89
2023-01-22T17:13:47.197Z,7.04
2023-01-22T17:16:14.672Z,7.06
2023-01-22T17:18:41.285Z,6.81
2023-01-22T17:21:08.921Z,6.83
2023-01-22T17:23:35.906Z,7.00
2023-01-22T17:26:07.299Z,6.92
2023-01-22T17:28:35.549Z,7.13
2023-01-22T17:31:05.266Z,7.16
2023-01-22T17:33:31.926Z,6.76
2023-01-22T17:35:59.646Z,7.09
2023-01-22T17:38:27.950Z,7.01
2023-01-22T17:40:56.776Z,7.19
2023-01-22T17:43:24.014Z,6.93
2023-01-22T17:45:50.760Z,6.74
2023-01-22T17:48:17.488Z,7.10
2023-01-22T17:50:43.996Z,7.15
2023-01-22T17:53:10.492Z,7.11
2023-01-22T17:55:37.946Z,6.89
2023-01-22T17:58:04.500Z,6.97
2023-01-22T18:00:31.611Z,7.00
2023-01-22T18:02:58.072Z,7.09
2023-01-22T18:05:26.612Z,7.18
2023-01-22T18:07:53.128Z,6.97
2023-01-22T18:10:20.438Z,7.10
2023-01-22T18:12:49.071Z,7.07
2023-01-22T18:15:15.718Z,6.94
2023-01-22T18:17:42.179Z,6.91
2023-01-22T18:20:09.351Z,7.21
2023-01-22T18:22:35.857Z,7.26
2023-01-22T18:25:02.520Z,7.32
2023-01-22T18:27:29.026Z,7.22
2023-01-22T18:29:55.785Z,7.26
2023-01-22T18:32:22.467Z,7.26
2023-01-22T18:34:48.962Z,7.25
2023-01-22T18:37:15.460Z,7.30
2023-01-22T18:39:42.045Z,7.05
2023-01-22T18:42:08.915Z,7.20
2023-01-22T18:44:35.388Z,7.04
2023-01-22T18:47:02.098Z,6.88
2023-01-22T18:49:29.043Z,7.12
2023-01-22T18:51:59.183Z,7.19
2023-01-22T18:54:25.738Z,6.96
2023-01-22T18:56:52.250Z,6.46
2023-01-22T18:59:18.924Z,6.96
2023-01-22T19:01:51.232Z,6.74
2023-01-22T19:04:21.517Z,6.89
2023-01-22T19:06:52.954Z,6.95
2023-01-22T19:09:19.799Z,6.58
2023-01-22T19:11:48.357Z,7.02
2023-01-22T19:14:17.229Z,6.65
2023-01-22T19:16:48.217Z,6.86
2023-01-22T19:19:15.952Z,6.98
2023-01-22T19:21:46.730Z,6.98
2023-01-22T19:24:15.423Z,7.14
2023-01-22T19:26:43.932Z,6.95
2023-01-22T19:29:14.466Z,6.97
2023-01-22T19:31:43.225Z,6.93
2023-01-22T19:34:11.754Z,6.64
2023-01-22T19:36:38.899Z,6.79
2023-01-22T19:39:09.543Z,6.64
2023-01-22T19:41:37.537Z,6.81
2023-01-22T19:44:04.355Z,6.89
2023-01-22T19:46:30.957Z,6.85
2023-01-22T19:48:57.800Z,6.59
2023-01-22T19:51:26.804Z,7.01
2023-01-22T19:53:54.438Z,6.93
2023-01-22T19:56:26.044Z,7.05
2023-01-22T19:58:54.146Z,7.03
2023-01-22T20:01:21.505Z,7.28
2023-01-22T20:03:48.068Z,7.39
2023-01-22T20:06:16.079Z,7.41
2023-01-22T20:08:42.886Z,7.28
2023-01-22T20:11:11.421Z,7.55
2023-01-22T20:13:38.494Z,7.52
2023-01-22T20:16:06.783Z,7.54
2023-01-22T20:18:39.419Z,7.62
2023-01-22T20:21:06.501Z,7.46
2023-01-22T20:23:33.077Z,7.59
2023-01-22T20:26:00.483Z,7.46
2023-01-22T20:28:26.940Z,7.55
2023-01-22T20:30:59.018Z,7.71
2023-01-22T20:33:26.332Z,7.60
2023-01-22T20:36:01.744Z,7.62
2023-01-22T20:38:28.747Z,7.48
2023-01-22T20:40:55.419Z,7.43
2023-01-22T20:43:22.215Z,7.58
2023-01-22T20:45:59.302Z,7.29
2023-01-22T20:48:25.767Z,7.45
2023-01-22T20:50:52.498Z,7.07
2023-01-22T20:53:19.854Z,7.43
2023-01-22T20:55:46.594Z,7.49
2023-01-22T20:58:13.112Z,7.20
2023-01-22T21:00:39.871Z,7.65
2023-01-22T21:03:06.397Z,7.61
2023-01-22T21:05:32.920Z,7.68
2023-01-22T21:08:01.728Z,7.54
2023-01-22T21:10:28.238Z,7.64
2023-01-22T21:12:54.764Z,7.83
2023-01-22T21:15:21.274Z,7.78
2023-01-22T21:17:48.007Z,7.89
2023-01-22T21:20:14.517Z,7.64
2023-01-22T21:22:42.328Z,7.56
2023-01-22T21:25:09.099Z,7.72
2023-01-22T21:27:35.559Z,7.64
2023-01-22T21:30:02.020Z,7.83
2023-01-22T21:32:30.564Z,7.85
2023-01-22T21:34:57.196Z,7.91
2023-01-22T21:37:23.720Z,7.96
2023-01-22T21:39:50.193Z,7.99
2023-01-22T21:42:35.212Z,7.83
2023-01-22T21:45:20.178Z,7.88
2023-01-22T21:47:47.011Z,7.88
2023-01-22T21:50:13.790Z,7.93
2023-01-22T21:52:42.479Z,7.90
2023-01-22T21:55:10.112Z,7.59
2023-01-22T21:57:37.820Z,7.82
2023-01-22T22:00:04.657Z,7.84
2023-01-22T22:02:31.201Z,7.88
2023-01-22T22:04:59.822Z,7.69
2023-01-22T22:07:26.317Z,7.85
2023-01-22T22:09:52.755Z,7.89
2023-01-22T22:12:19.280Z,7.94
2023-01-22T22:14:45.737Z,7.86
2023-01-22T22:17:12.402Z,7.90
2023-01-22T22:19:39.035Z,7.77
2023-01-22T22:22:05.534Z,7.84
2023-01-22T22:24:32.025Z,7.80
2023-01-22T22:26:58.525Z,7.84
2023-01-22T22:29:25.066Z,7.77
2023-01-22T22:31:51.615Z,7.83
2023-01-22T22:34:18.164Z,7.76
2023-01-22T22:36:44.672Z,7.80
2023-01-22T22:39:11.154Z,7.52
2023-01-22T22:41:39.196Z,7.72
2023-01-22T22:44:06.459Z,7.77
2023-01-22T22:46:35.396Z,7.83
2023-01-22T22:49:03.154Z,7.88
2023-01-22T22:51:32.292Z,7.91
2023-01-22T22:54:01.386Z,7.58
2023-01-22T22:56:28.471Z,7.57
2023-01-22T22:58:55.836Z,7.67
2023-01-22T23:01:25.010Z,7.52
2023-01-22T23:03:52.189Z,7.59
2023-01-22T23:06:25.368Z,7.66
2023-01-22T23:08:53.829Z,7.63
2023-01-22T23:11:26.971Z,7.56
2023-01-22T23:13:54.109Z,7.23
2023-01-22T23:16:22.451Z,7.32
2023-01-22T23:18:51.075Z,7.45
2023-01-22T23:21:22.972Z,7.39
2023-01-22T23:23:50.492Z,7.23
2023-01-22T23:26:27.878Z,7.26
2023-01-22T23:28:57.863Z,7.30
2023-01-22T23:31:25.461Z,7.53
2023-01-22T23:33:52.189Z,7.43
2023-01-22T23:36:18.683Z,7.59
2023-01-22T23:38:45.633Z,7.33
2023-01-22T23:41:14.517Z,7.59
2023-01-22T23:43:41.885Z,7.47
2023-01-22T23:46:10.339Z,7.38
2023-01-22T23:48:37.046Z,7.44
2023-01-22T23:51:04.087Z,7.55
2023-01-22T23:53:30.596Z,7.38
2023-01-22T23:56:01.118Z,7.54
2023-01-22T23:58:28.586Z,7.60
